createdAt,value
2019-05-11T00:02:23.424Z,3.60
2019-05-11T00:04:49.476Z,3.50
2019-05-11T00:07:15.544Z,3.50
2019-05-11T00:09:56.920Z,3.50
2019-05-11T00:12:09.576Z,3.50
2019-05-11T00:14:35.631Z,3.50
2019-05-11T00:17:02.034Z,3.50
2019-05-11T00:19:28.164Z,3.50
2019-05-11T00:21:54.228Z,3.40
2019-05-11T00:24:20.281Z,3.40
2019-05-11T00:26:46.366Z,3.40
2019-05-11T00:29:12.421Z,3.40
2019-05-11T00:31:38.530Z,3.40
2019-05-11T00:34:04.569Z,3.40
2019-05-11T00:36:30.616Z,3.30
2019-05-11T00:38:56.676Z,3.30
2019-05-11T00:41:22.795Z,3.30
2019-05-11T00:43:48.927Z,3.30
2019-05-11T00:47:03.375Z,3.20
2019-05-11T00:49:29.431Z,3.20
2019-05-11T00:51:55.484Z,3.20
2019-05-11T00:54:21.563Z,3.20
2019-05-11T00:56:47.612Z,3.20
2019-05-11T00:59:21.473Z,3.20
2019-05-11T01:04:21.283Z,3.10
2019-05-11T01:06:47.398Z,3.20
2019-05-11T01:09:13.504Z,3.40
2019-05-11T01:11:39.563Z,3.10
2019-05-11T01:14:05.628Z,3.00
2019-05-11T01:16:31.695Z,3.00
2019-05-11T01:18:57.760Z,3.00
2019-05-11T01:21:23.829Z,3.00
2019-05-11T01:23:49.884Z,3.00
2019-05-11T01:28:28.731Z,3.00
2019-05-11T01:30:54.783Z,3.00
2019-05-11T01:33:20.850Z,2.90
2019-05-11T01:35:46.892Z,3.00
2019-05-11T01:38:12.948Z,2.90
2019-05-11T01:40:39.000Z,2.90
2019-05-11T01:43:05.060Z,2.90
2019-05-11T01:45:31.115Z,2.90
2019-05-11T01:47:57.204Z,2.80
2019-05-11T01:50:23.260Z,2.80
2019-05-11T01:52:49.312Z,2.80
2019-05-11T01:55:15.389Z,2.80
2019-05-11T01:57:41.455Z,2.70
2019-05-11T02:00:08.807Z,2.70
2019-05-11T02:02:34.860Z,2.70
2019-05-11T02:05:19.524Z,2.70
2019-05-11T02:07:45.571Z,2.60
2019-05-11T02:10:11.663Z,2.60
2019-05-11T02:12:37.732Z,2.60
2019-05-11T02:15:04.284Z,2.60
2019-05-11T02:17:30.337Z,2.60
2019-05-11T02:19:56.390Z,2.60
2019-05-11T02:22:22.451Z,2.50
2019-05-11T02:24:48.615Z,2.50
2019-05-11T02:27:14.659Z,2.50
2019-05-11T02:29:41.687Z,2.50
2019-05-11T02:32:08.076Z,2.50
2019-05-11T02:34:34.233Z,2.50
2019-05-11T02:37:00.308Z,2.50
2019-05-11T02:39:26.463Z,2.50
2019-05-11T02:41:52.517Z,2.50
2019-05-11T02:44:18.706Z,0.60
2019-05-11T02:46:44.747Z,2.60
2019-05-11T02:49:10.811Z,2.60
2019-05-11T02:51:37.759Z,2.70
2019-05-11T02:54:04.956Z,2.70
2019-05-11T02:56:31.022Z,2.80
2019-05-11T02:58:57.064Z,2.90
2019-05-11T03:01:23.130Z,3.00
2019-05-11T03:03:49.211Z,3.00
2019-05-11T03:06:15.365Z,3.10
2019-05-11T03:08:41.425Z,3.20
2019-05-11T03:11:07.508Z,3.20
2019-05-11T03:13:33.562Z,3.20
2019-05-11T03:15:59.607Z,3.20
2019-05-11T03:18:25.664Z,3.30
2019-05-11T03:20:51.732Z,3.20
2019-05-11T03:23:17.797Z,3.20
2019-05-11T03:25:43.854Z,3.20
2019-05-11T03:28:09.905Z,3.20
2019-05-11T03:30:35.980Z,3.20
2019-05-11T03:33:02.265Z,3.10
2019-05-11T03:35:28.504Z,3.10
2019-05-11T03:37:54.742Z,3.40
2019-05-11T03:40:20.851Z,3.10
2019-05-11T03:42:46.915Z,3.10
2019-05-11T03:45:13.707Z,3.00
2019-05-11T03:47:39.848Z,3.00
2019-05-11T03:50:06.400Z,3.00
2019-05-11T03:52:32.468Z,3.00
2019-05-11T03:54:58.526Z,3.00
2019-05-11T03:57:24.591Z,3.00
2019-05-11T03:59:50.735Z,3.00
2019-05-11T04:02:16.888Z,3.00
2019-05-11T04:04:42.942Z,3.00
2019-05-11T04:07:09.014Z,3.00
2019-05-11T04:09:35.132Z,3.00
2019-05-11T04:12:01.284Z,3.10
2019-05-11T04:14:27.344Z,3.10
2019-05-11T04:16:53.394Z,3.10
2019-05-11T04:19:19.488Z,3.20
2019-05-11T04:21:45.584Z,3.20
2019-05-11T04:24:11.729Z,3.30
2019-05-11T04:26:37.888Z,3.50
2019-05-11T04:29:04.031Z,3.60
2019-05-11T04:31:30.090Z,3.70
2019-05-11T04:33:56.160Z,3.90
2019-05-11T04:38:48.647Z,4.30
2019-05-11T04:41:14.697Z,4.40
2019-05-11T04:43:40.751Z,4.60
2019-05-11T04:46:06.805Z,4.70
2019-05-11T04:48:32.872Z,4.90
2019-05-11T04:50:58.940Z,5.10
2019-05-11T04:53:25.013Z,5.30
2019-05-11T04:55:51.164Z,5.50
2019-05-11T04:58:17.232Z,5.60
2019-05-11T05:00:43.285Z,5.70
2019-05-11T05:03:10.047Z,7.80
2019-05-11T05:05:36.423Z,6.00
2019-05-11T05:08:09.629Z,6.10
2019-05-11T05:10:30.459Z,6.20
2019-05-11T05:13:09.655Z,6.40
2019-05-11T05:15:24.485Z,6.50
2019-05-11T05:17:50.623Z,6.70
2019-05-11T05:20:17.279Z,6.80
2019-05-11T05:22:43.401Z,6.90
2019-05-11T05:25:11.587Z,7.00
2019-05-11T05:27:37.671Z,7.00
2019-05-11T05:30:05.999Z,7.10
2019-05-11T05:32:32.168Z,7.00
2019-05-11T05:34:58.215Z,7.10
2019-05-11T05:37:24.631Z,7.20
2019-05-11T05:39:51.123Z,7.30
2019-05-11T05:42:17.280Z,7.50
2019-05-11T05:44:43.331Z,7.50
2019-05-11T05:47:09.444Z,7.50
2019-05-11T05:49:35.588Z,7.60
2019-05-11T05:52:01.746Z,7.70
2019-05-11T05:54:27.999Z,7.90
2019-05-11T05:56:54.053Z,8.20
2019-05-11T05:59:20.125Z,8.60
2019-05-11T06:01:46.182Z,9.10
2019-05-11T06:04:12.420Z,9.50
2019-05-11T06:06:38.483Z,9.80
2019-05-11T06:09:06.253Z,10.00
2019-05-11T06:11:32.345Z,10.00
2019-05-11T06:13:58.487Z,10.00
2019-05-11T06:16:24.556Z,10.00
2019-05-11T06:18:50.616Z,10.00
2019-05-11T06:21:16.720Z,9.80
2019-05-11T06:23:42.819Z,9.80
2019-05-11T06:26:08.976Z,9.70
2019-05-11T06:28:35.051Z,9.60
2019-05-11T06:31:01.107Z,9.50
2019-05-11T06:33:27.196Z,9.50
2019-05-11T06:35:53.256Z,9.40
2019-05-11T06:38:19.359Z,9.40
2019-05-11T06:40:45.521Z,9.40
2019-05-11T06:43:11.596Z,9.40
2019-05-11T06:45:37.814Z,9.40
2019-05-11T06:48:03.858Z,9.30
2019-05-11T06:50:29.924Z,9.30
2019-05-11T06:52:55.972Z,9.40
2019-05-11T06:55:22.069Z,9.40
2019-05-11T06:57:48.115Z,9.50
2019-05-11T07:00:14.737Z,9.50
2019-05-11T07:02:40.791Z,9.60
2019-05-11T07:05:07.042Z,9.60
2019-05-11T07:07:46.548Z,9.60
2019-05-11T07:10:01.998Z,9.60
2019-05-11T07:12:28.069Z,9.70
2019-05-11T07:14:54.335Z,9.90
2019-05-11T07:17:20.433Z,10.00
2019-05-11T07:19:47.664Z,10.00
2019-05-11T07:22:13.956Z,10.20
2019-05-11T07:24:39.999Z,10.20
2019-05-11T07:27:06.169Z,10.20
2019-05-11T07:29:32.223Z,10.30
2019-05-11T07:32:05.574Z,10.40
2019-05-11T07:34:27.802Z,10.40
2019-05-11T07:36:54.027Z,10.30
2019-05-11T07:41:47.795Z,10.40
2019-05-11T07:44:14.272Z,10.50
2019-05-11T07:46:40.355Z,10.60
2019-05-11T07:49:08.561Z,10.70
2019-05-11T07:51:34.391Z,10.80
2019-05-11T07:54:00.501Z,10.90
2019-05-11T07:56:28.557Z,11.00
2019-05-11T07:58:54.515Z,11.20
2019-05-11T08:01:20.628Z,11.20
2019-05-11T08:03:48.527Z,11.10
2019-05-11T08:06:14.911Z,11.10
2019-05-11T08:08:41.099Z,11.20
2019-05-11T08:11:08.149Z,11.20
2019-05-11T08:13:34.533Z,11.20
2019-05-11T08:16:00.587Z,11.30
2019-05-11T08:18:28.241Z,11.40
2019-05-11T08:20:54.607Z,11.30
2019-05-11T08:23:20.760Z,11.30
2019-05-11T08:25:48.613Z,11.30
2019-05-11T08:28:14.857Z,11.50
2019-05-11T08:30:41.008Z,11.60
2019-05-11T08:33:08.702Z,11.70
2019-05-11T08:35:34.936Z,11.70
2019-05-11T08:38:01.210Z,11.70
2019-05-11T08:40:28.876Z,11.80
2019-05-11T08:42:55.238Z,11.80
2019-05-11T08:45:24.745Z,11.80
2019-05-11T08:47:49.499Z,11.90
2019-05-11T08:50:15.797Z,11.90
2019-05-11T08:52:42.655Z,11.90
2019-05-11T08:55:09.346Z,11.90
2019-05-11T08:57:35.519Z,12.00
2019-05-11T09:00:01.878Z,12.20
2019-05-11T09:02:27.995Z,12.10
2019-05-11T09:04:54.095Z,12.10
2019-05-11T09:07:20.140Z,12.10
2019-05-11T09:09:48.184Z,12.10
2019-05-11T09:12:14.180Z,12.10
2019-05-11T09:14:40.373Z,12.10
2019-05-11T09:17:07.825Z,12.20
2019-05-11T09:19:34.090Z,12.20
2019-05-11T09:22:03.050Z,12.10
2019-05-11T09:24:28.341Z,12.20
2019-05-11T09:26:54.630Z,12.30
2019-05-11T09:29:20.820Z,12.30
2019-05-11T09:31:48.684Z,12.30
2019-05-11T09:34:14.840Z,12.30
2019-05-11T09:36:40.942Z,12.30
2019-05-11T09:39:08.424Z,12.20
2019-05-11T09:41:35.336Z,12.40
2019-05-11T09:44:01.512Z,12.40
2019-05-11T09:46:27.993Z,12.40
2019-05-11T09:48:54.211Z,12.30
2019-05-11T09:51:20.270Z,12.30
2019-05-11T09:53:48.282Z,12.40
2019-05-11T09:56:14.288Z,12.50
2019-05-11T09:58:40.339Z,12.50
2019-05-11T10:01:08.657Z,12.60
2019-05-11T10:03:34.396Z,12.70
2019-05-11T10:06:00.447Z,12.70
2019-05-11T10:08:28.544Z,12.80
2019-05-11T10:10:54.476Z,12.90
2019-05-11T10:13:20.624Z,13.00
2019-05-11T10:16:01.017Z,13.00
2019-05-11T10:18:14.651Z,13.00
2019-05-11T10:20:40.695Z,13.10
2019-05-11T10:23:08.396Z,12.90
2019-05-11T10:25:34.710Z,12.90
2019-05-11T10:28:00.765Z,12.90
2019-05-11T10:30:28.038Z,12.90
2019-05-11T10:32:54.375Z,12.90
2019-05-11T10:35:20.470Z,13.00
2019-05-11T10:37:47.810Z,13.10
2019-05-11T10:40:14.267Z,13.20
2019-05-11T10:42:40.324Z,13.30
2019-05-11T10:45:09.118Z,13.40
2019-05-11T10:47:34.975Z,13.60
2019-05-11T10:50:01.522Z,13.70
2019-05-11T10:52:28.680Z,13.70
2019-05-11T10:54:55.186Z,13.80
2019-05-11T10:57:21.259Z,13.80
2019-05-11T10:59:48.865Z,13.80
2019-05-11T11:02:15.183Z,13.80
2019-05-11T11:04:41.242Z,13.80
2019-05-11T11:07:07.829Z,13.70
2019-05-11T11:09:34.096Z,13.70
2019-05-11T11:12:00.172Z,13.70
2019-05-11T11:14:28.466Z,13.70
2019-05-11T11:16:54.193Z,13.80
2019-05-11T11:19:20.242Z,13.90
2019-05-11T11:21:48.585Z,13.80
2019-05-11T11:24:14.383Z,13.90
2019-05-11T11:26:40.446Z,14.00
2019-05-11T11:29:08.395Z,14.10
2019-05-11T11:31:34.447Z,14.20
2019-05-11T11:34:00.499Z,14.30
2019-05-11T11:36:28.409Z,14.40
2019-05-11T11:38:54.531Z,14.40
2019-05-11T11:41:20.640Z,14.40
2019-05-11T11:43:48.307Z,14.60
2019-05-11T11:46:14.671Z,14.50
2019-05-11T11:48:40.720Z,14.60
2019-05-11T11:51:08.114Z,14.70
2019-05-11T11:53:34.464Z,14.70
2019-05-11T11:56:00.600Z,14.60
2019-05-11T11:58:27.688Z,14.60
2019-05-11T12:00:53.984Z,14.60
2019-05-11T12:03:20.051Z,14.70
2019-05-11T12:05:47.698Z,14.90
2019-05-11T12:08:13.976Z,15.10
2019-05-11T12:10:40.049Z,15.40
2019-05-11T12:13:08.445Z,15.70
2019-05-11T12:15:34.062Z,15.60
2019-05-11T12:18:00.155Z,15.60
2019-05-11T12:20:28.481Z,15.70
2019-05-11T12:22:54.203Z,15.80
2019-05-11T12:25:20.283Z,15.90
2019-05-11T12:27:48.835Z,16.00
2019-05-11T12:30:14.707Z,15.90
2019-05-11T12:32:42.668Z,15.90
2019-05-11T12:35:08.755Z,16.00
2019-05-11T12:37:34.890Z,16.20
2019-05-11T12:40:01.043Z,16.10
2019-05-11T12:42:28.425Z,15.90
2019-05-11T12:44:54.624Z,15.90
2019-05-11T12:47:24.796Z,15.90
2019-05-11T12:49:48.687Z,15.80
2019-05-11T12:52:14.751Z,15.60
2019-05-11T12:54:40.928Z,15.50
2019-05-11T12:57:07.885Z,15.60
2019-05-11T12:59:34.232Z,15.70
2019-05-11T13:02:00.293Z,15.80
2019-05-11T13:04:28.215Z,15.80
2019-05-11T13:06:54.327Z,15.90
2019-05-11T13:09:20.416Z,15.90
2019-05-11T13:11:48.163Z,15.80
2019-05-11T13:14:14.439Z,15.80
2019-05-11T13:16:40.491Z,15.80
2019-05-11T13:19:08.347Z,15.80
2019-05-11T13:21:34.610Z,15.80
2019-05-11T13:24:00.760Z,15.90
2019-05-11T13:26:28.396Z,16.00
2019-05-11T13:28:54.667Z,15.80
2019-05-11T13:31:20.725Z,15.60
2019-05-11T13:33:48.040Z,15.70
2019-05-11T13:36:14.395Z,15.60
2019-05-11T13:38:40.527Z,15.60
2019-05-11T13:41:07.951Z,15.70
2019-05-11T13:43:34.241Z,15.80
2019-05-11T13:46:00.303Z,15.90
2019-05-11T13:48:28.129Z,16.00
2019-05-11T13:50:54.329Z,16.00
2019-05-11T13:53:20.447Z,16.10
2019-05-11T13:55:48.115Z,15.40
2019-05-11T13:58:14.579Z,16.00
2019-05-11T14:00:40.627Z,16.00
2019-05-11T14:03:07.893Z,15.80
2019-05-11T14:05:34.144Z,15.80
2019-05-11T14:08:00.199Z,15.80
2019-05-11T14:10:28.282Z,15.60
2019-05-11T14:12:54.220Z,15.70
2019-05-11T14:15:20.275Z,15.70
2019-05-11T14:17:48.038Z,15.80
2019-05-11T14:20:14.552Z,15.90
2019-05-11T14:22:40.709Z,16.00
2019-05-11T14:25:08.054Z,16.10
2019-05-11T14:27:34.315Z,16.10
2019-05-11T14:30:03.947Z,16.20
2019-05-11T14:32:28.643Z,16.10
2019-05-11T14:34:54.920Z,16.00
2019-05-11T14:37:21.004Z,15.90
2019-05-11T14:39:48.226Z,15.80
2019-05-11T14:42:14.518Z,15.70
2019-05-11T14:44:40.575Z,15.70
2019-05-11T14:47:08.501Z,15.70
2019-05-11T14:49:34.612Z,15.70
2019-05-11T14:52:00.756Z,15.70
2019-05-11T14:54:28.874Z,15.60
2019-05-11T14:56:54.799Z,15.50
2019-05-11T14:59:20.875Z,15.40
2019-05-11T15:01:49.027Z,15.40
2019-05-11T15:04:14.895Z,15.40
2019-05-11T15:06:40.956Z,15.50
2019-05-11T15:09:07.919Z,15.60
2019-05-11T15:11:34.180Z,15.70
2019-05-11T15:14:00.239Z,15.80
2019-05-11T15:16:27.899Z,15.90
2019-05-11T15:18:54.184Z,15.90
2019-05-11T15:21:20.287Z,15.80
2019-05-11T15:23:47.777Z,15.70
2019-05-11T15:26:14.018Z,15.70
2019-05-11T15:28:40.067Z,15.80
2019-05-11T15:31:08.031Z,16.00
2019-05-11T15:33:34.107Z,16.20
2019-05-11T15:36:00.174Z,16.40
2019-05-11T15:38:28.279Z,16.40
2019-05-11T15:40:54.184Z,16.40
2019-05-11T15:43:20.243Z,16.20
2019-05-11T15:45:48.560Z,16.00
2019-05-11T15:48:14.358Z,15.80
2019-05-11T15:50:40.539Z,15.40
2019-05-11T15:53:08.623Z,15.20
2019-05-11T15:55:34.649Z,15.00
2019-05-11T15:58:00.704Z,15.10
2019-05-11T16:00:26.962Z,15.00
2019-05-11T16:02:53.046Z,15.10
2019-05-11T16:05:19.336Z,15.00
2019-05-11T16:07:45.404Z,14.90
2019-05-11T16:10:11.584Z,14.90
2019-05-11T16:12:39.011Z,14.80
2019-05-11T16:15:08.688Z,14.70
2019-05-11T16:17:34.959Z,14.70
2019-05-11T16:20:01.016Z,14.70
2019-05-11T16:22:27.998Z,14.70
2019-05-11T16:24:54.356Z,14.70
2019-05-11T16:27:20.416Z,14.60
2019-05-11T16:29:47.890Z,14.50
2019-05-11T16:32:14.252Z,14.50
2019-05-11T16:34:40.300Z,14.40
2019-05-11T16:37:09.914Z,14.30
2019-05-11T16:39:34.317Z,14.10
2019-05-11T16:42:00.447Z,14.10
2019-05-11T16:44:26.536Z,14.10
2019-05-11T16:46:52.611Z,14.20
2019-05-11T16:49:28.395Z,14.20
2019-05-11T16:51:46.667Z,14.20
2019-05-11T16:54:12.736Z,14.20
2019-05-11T16:56:38.788Z,14.30
2019-05-11T16:59:04.835Z,14.30
2019-05-11T17:01:30.887Z,14.40
2019-05-11T17:03:57.824Z,14.40
2019-05-11T17:06:24.107Z,14.40
2019-05-11T17:08:50.167Z,14.50
2019-05-11T17:11:18.461Z,14.40
2019-05-11T17:13:44.191Z,14.40
2019-05-11T17:16:10.344Z,14.30
2019-05-11T17:18:36.425Z,14.20
2019-05-11T17:21:02.576Z,14.10
2019-05-11T17:23:30.959Z,14.10
2019-05-11T17:25:57.876Z,13.90
2019-05-11T17:28:24.362Z,13.80
2019-05-11T17:30:50.419Z,13.60
2019-05-11T17:33:17.776Z,13.60
2019-05-11T17:35:44.079Z,13.60
2019-05-11T17:38:10.133Z,13.50
2019-05-11T17:40:37.869Z,13.50
2019-05-11T17:43:04.069Z,13.50
2019-05-11T17:45:30.115Z,13.60
2019-05-11T17:47:57.948Z,13.60
2019-05-11T17:50:24.159Z,13.60
2019-05-11T17:52:50.233Z,13.70
2019-05-11T17:55:18.431Z,14.00
2019-05-11T17:57:44.332Z,14.10
2019-05-11T18:00:10.805Z,14.30
2019-05-11T18:02:38.977Z,14.50
2019-05-11T18:05:05.632Z,14.70
2019-05-11T18:07:31.684Z,14.90
2019-05-11T18:09:58.657Z,15.00
2019-05-11T18:12:24.916Z,15.20
2019-05-11T18:14:51.166Z,15.10
2019-05-11T18:17:17.863Z,14.90
2019-05-11T18:19:44.251Z,14.70
2019-05-11T18:22:10.300Z,14.50
2019-05-11T18:24:38.269Z,14.40
2019-05-11T18:27:04.345Z,14.10
2019-05-11T18:29:30.395Z,13.90
2019-05-11T18:31:57.941Z,13.80
2019-05-11T18:34:24.260Z,13.70
2019-05-11T18:36:50.324Z,13.70
2019-05-11T18:39:18.447Z,13.70
2019-05-11T18:41:44.347Z,13.70
2019-05-11T18:44:10.404Z,13.60
2019-05-11T18:46:38.837Z,13.50
2019-05-11T18:49:04.451Z,13.40
2019-05-11T18:51:30.493Z,13.20
2019-05-11T18:53:58.500Z,13.00
2019-05-11T18:56:24.645Z,12.80
2019-05-11T18:58:50.703Z,12.50
2019-05-11T19:01:17.895Z,12.30
2019-05-11T19:03:44.179Z,12.10
2019-05-11T19:06:10.230Z,11.90
2019-05-11T19:08:38.379Z,11.70
2019-05-11T19:11:04.360Z,11.50
2019-05-11T19:13:30.411Z,11.40
2019-05-11T19:15:58.336Z,11.30
2019-05-11T19:18:24.423Z,11.10
2019-05-11T19:20:50.479Z,11.10
2019-05-11T19:23:18.994Z,11.00
2019-05-11T19:25:44.516Z,10.90
2019-05-11T19:28:10.568Z,10.90
2019-05-11T19:30:38.363Z,10.80
2019-05-11T19:33:04.627Z,10.70
2019-05-11T19:35:30.675Z,10.60
2019-05-11T19:37:57.854Z,10.50
2019-05-11T19:40:24.091Z,10.50
2019-05-11T19:42:53.840Z,10.40
2019-05-11T19:45:20.091Z,10.30
2019-05-11T19:47:48.326Z,10.20
2019-05-11T19:50:14.092Z,10.10
2019-05-11T19:52:40.212Z,10.00
2019-05-11T19:55:08.440Z,9.90
2019-05-11T19:57:34.507Z,11.70
2019-05-11T20:00:00.676Z,9.80
2019-05-11T20:02:28.338Z,9.70
2019-05-11T20:04:54.690Z,9.70
2019-05-11T20:07:20.769Z,9.60
2019-05-11T20:09:46.931Z,9.60
2019-05-11T20:12:12.975Z,9.50
2019-05-11T20:14:39.024Z,9.50
2019-05-11T20:17:05.084Z,9.40
2019-05-11T20:19:31.268Z,9.40
2019-05-11T20:21:57.864Z,9.30
2019-05-11T20:24:25.203Z,9.30
2019-05-11T20:26:51.447Z,9.20
2019-05-11T20:29:17.547Z,9.10
2019-05-11T20:31:43.992Z,9.10
2019-05-11T20:34:10.058Z,9.00
2019-05-11T20:36:36.127Z,8.90
2019-05-11T20:39:05.584Z,8.80
2019-05-11T20:41:31.632Z,8.80
2019-05-11T20:43:58.052Z,8.70
2019-05-11T20:46:24.347Z,8.70
2019-05-11T20:48:50.424Z,8.60
2019-05-11T20:51:29.710Z,8.60
2019-05-11T20:53:46.308Z,8.50
2019-05-11T20:56:12.423Z,8.40
2019-05-11T20:58:54.127Z,8.40
2019-05-11T21:01:21.580Z,8.30
2019-05-11T21:03:48.591Z,8.30
2019-05-11T21:06:14.963Z,8.20
2019-05-11T21:08:41.009Z,8.20
2019-05-11T21:11:08.636Z,8.10
2019-05-11T21:13:34.959Z,8.00
2019-05-11T21:16:01.066Z,8.00
2019-05-11T21:18:28.740Z,8.00
2019-05-11T21:20:55.086Z,7.90
2019-05-11T21:23:21.240Z,7.90
2019-05-11T21:25:47.287Z,7.80
2019-05-11T21:28:13.467Z,7.80
2019-05-11T21:30:40.022Z,7.70
2019-05-11T21:33:08.481Z,7.70
2019-05-11T21:35:34.246Z,7.60
2019-05-11T21:38:00.304Z,7.60
2019-05-11T21:40:28.912Z,7.50
2019-05-11T21:42:54.331Z,7.40
2019-05-11T21:45:20.410Z,7.40
2019-05-11T21:47:48.677Z,7.30
2019-05-11T21:50:14.531Z,7.30
2019-05-11T21:52:40.588Z,7.30
2019-05-11T21:55:09.373Z,7.30
2019-05-11T21:57:35.260Z,7.20
2019-05-11T22:00:01.513Z,7.20
2019-05-11T22:02:28.680Z,7.10
2019-05-11T22:04:54.949Z,7.10
2019-05-11T22:07:23.172Z,7.10
2019-05-11T22:09:48.980Z,7.00
2019-05-11T22:12:15.047Z,7.00
2019-05-11T22:14:41.108Z,7.00
2019-05-11T22:17:07.786Z,6.90
2019-05-11T22:19:34.010Z,6.90
2019-05-11T22:22:00.067Z,6.80
2019-05-11T22:24:28.138Z,6.80
2019-05-11T22:26:54.228Z,6.80
2019-05-11T22:29:20.299Z,6.70
2019-05-11T22:31:48.252Z,6.60
2019-05-11T22:34:14.312Z,6.60
2019-05-11T22:36:40.363Z,6.50
2019-05-11T22:39:08.408Z,6.40
2019-05-11T22:41:34.724Z,6.40
2019-05-11T22:44:01.082Z,6.40
2019-05-11T22:46:28.068Z,6.40
2019-05-11T22:48:54.292Z,6.30
2019-05-11T22:51:20.347Z,6.20
2019-05-11T22:53:47.941Z,6.20
2019-05-11T22:56:14.395Z,6.20
2019-05-11T22:58:40.447Z,6.20
2019-05-11T23:01:08.495Z,6.10
2019-05-11T23:03:34.468Z,6.10
2019-05-11T23:06:00.541Z,6.10
2019-05-11T23:08:26.622Z,6.10
2019-05-11T23:10:52.669Z,6.10
2019-05-11T23:13:18.822Z,6.00
2019-05-11T23:15:44.981Z,6.00
2019-05-11T23:18:11.046Z,6.00
2019-05-11T23:20:38.556Z,6.00
2019-05-11T23:23:05.084Z,5.90
2019-05-11T23:25:31.579Z,5.90
2019-05-11T23:27:58.809Z,5.90
2019-05-11T23:30:24.991Z,5.90
2019-05-11T23:32:51.043Z,5.90
2019-05-11T23:35:18.735Z,5.80
2019-05-11T23:37:45.082Z,5.80
2019-05-11T23:40:11.432Z,5.70
2019-05-11T23:42:40.496Z,5.70
2019-05-11T23:45:08.424Z,5.70
2019-05-11T23:47:34.812Z,5.60
2019-05-11T23:50:01.784Z,5.60
2019-05-11T23:52:29.570Z,5.60
2019-05-11T23:54:55.791Z,5.60
2019-05-11T23:57:21.859Z,5.60
2019-05-11T23:59:48.007Z,5.60
